sensor_id;sensor_type;location;lat;lon;timestamp;P1;durP1;ratioP1;P2;durP2;ratioP2
17235;SDS011;8734;59.272;17.780;2023-07-28T00:00:11;5.87;;;1.93;;
17235;SDS011;8734;59.272;17.780;2023-07-28T00:02:40;4.10;;;1.83;;
17235;SDS011;8734;59.272;17.780;2023-07-28T00:05:08;3.93;;;1.77;;
17235;SDS011;8734;59.272;17.780;2023-07-28T00:07:38;6.70;;;1.80;;
17235;SDS011;8734;59.272;17.780;2023-07-28T00:10:06;1.43;;;1.30;;
17235;SDS011;8734;59.272;17.780;2023-07-28T00:12:35;3.20;;;1.70;;
17235;SDS011;8734;59.272;17.780;2023-07-28T00:15:03;3.77;;;1.40;;
17235;SDS011;8734;59.272;17.780;2023-07-28T00:17:32;6.23;;;1.60;;
17235;SDS011;8734;59.272;17.780;2023-07-28T00:20:01;7.20;;;1.67;;
17235;SDS011;8734;59.272;17.780;2023-07-28T00:22:29;3.13;;;1.60;;
17235;SDS011;8734;59.272;17.780;2023-07-28T00:24:59;4.97;;;1.33;;
17235;SDS011;8734;59.272;17.780;2023-07-28T00:27:27;2.73;;;1.60;;
17235;SDS011;8734;59.272;17.780;2023-07-28T00:29:56;6.13;;;1.60;;
17235;SDS011;8734;59.272;17.780;2023-07-28T00:32:24;2.80;;;1.70;;
17235;SDS011;8734;59.272;17.780;2023-07-28T00:34:52;9.40;;;1.50;;
17235;SDS011;8734;59.272;17.780;2023-07-28T00:37:21;4.90;;;1.50;;
17235;SDS011;8734;59.272;17.780;2023-07-28T00:39:49;5.47;;;1.67;;
17235;SDS011;8734;59.272;17.780;2023-07-28T00:42:19;3.83;;;1.50;;
17235;SDS011;8734;59.272;17.780;2023-07-28T00:44:47;4.27;;;1.50;;
17235;SDS011;8734;59.272;17.780;2023-07-28T00:47:15;4.23;;;1.63;;
17235;SDS011;8734;59.272;17.780;2023-07-28T00:49:43;7.07;;;2.07;;
17235;SDS011;8734;59.272;17.780;2023-07-28T00:52:12;4.23;;;1.53;;
17235;SDS011;8734;59.272;17.780;2023-07-28T00:54:40;4.20;;;1.73;;
17235;SDS011;8734;59.272;17.780;2023-07-28T00:57:09;6.30;;;1.63;;
17235;SDS011;8734;59.272;17.780;2023-07-28T00:59:39;2.17;;;1.40;;
17235;SDS011;8734;59.272;17.780;2023-07-28T01:02:07;4.13;;;1.47;;
17235;SDS011;8734;59.272;17.780;2023-07-28T01:04:36;3.33;;;1.70;;
17235;SDS011;8734;59.272;17.780;2023-07-28T01:07:05;6.57;;;1.40;;
17235;SDS011;8734;59.272;17.780;2023-07-28T01:09:40;5.43;;;1.80;;
17235;SDS011;8734;59.272;17.780;2023-07-28T01:12:14;3.20;;;1.60;;
17235;SDS011;8734;59.272;17.780;2023-07-28T01:14:44;8.20;;;1.80;;
17235;SDS011;8734;59.272;17.780;2023-07-28T01:17:12;3.90;;;1.50;;
17235;SDS011;8734;59.272;17.780;2023-07-28T01:19:40;3.30;;;1.70;;
17235;SDS011;8734;59.272;17.780;2023-07-28T01:22:19;5.13;;;1.80;;
17235;SDS011;8734;59.272;17.780;2023-07-28T01:25:11;3.60;;;1.63;;
17235;SDS011;8734;59.272;17.780;2023-07-28T01:27:47;5.43;;;1.63;;
17235;SDS011;8734;59.272;17.780;2023-07-28T01:30:17;3.60;;;1.77;;
17235;SDS011;8734;59.272;17.780;2023-07-28T01:32:47;4.03;;;1.90;;
17235;SDS011;8734;59.272;17.780;2023-07-28T01:35:15;5.10;;;2.03;;
17235;SDS011;8734;59.272;17.780;2023-07-28T01:37:44;5.03;;;1.87;;
17235;SDS011;8734;59.272;17.780;2023-07-28T01:40:17;3.30;;;1.40;;
17235;SDS011;8734;59.272;17.780;2023-07-28T01:42:45;4.73;;;1.60;;
17235;SDS011;8734;59.272;17.780;2023-07-28T01:45:15;4.23;;;1.60;;
17235;SDS011;8734;59.272;17.780;2023-07-28T01:47:43;7.20;;;1.80;;
17235;SDS011;8734;59.272;17.780;2023-07-28T01:50:12;3.37;;;1.87;;
17235;SDS011;8734;59.272;17.780;2023-07-28T01:52:40;5.73;;;1.80;;
17235;SDS011;8734;59.272;17.780;2023-07-28T01:55:08;3.57;;;1.67;;
17235;SDS011;8734;59.272;17.780;2023-07-28T01:57:38;5.13;;;1.90;;
17235;SDS011;8734;59.272;17.780;2023-07-28T02:00:08;4.27;;;1.57;;
17235;SDS011;8734;59.272;17.780;2023-07-28T02:02:37;3.23;;;1.47;;
17235;SDS011;8734;59.272;17.780;2023-07-28T02:05:06;4.37;;;1.60;;
17235;SDS011;8734;59.272;17.780;2023-07-28T02:07:34;4.57;;;1.70;;
17235;SDS011;8734;59.272;17.780;2023-07-28T02:10:03;4.77;;;1.57;;
17235;SDS011;8734;59.272;17.780;2023-07-28T02:12:32;2.47;;;1.57;;
17235;SDS011;8734;59.272;17.780;2023-07-28T02:15:00;2.63;;;1.70;;
17235;SDS011;8734;59.272;17.780;2023-07-28T02:17:29;3.73;;;2.03;;
17235;SDS011;8734;59.272;17.780;2023-07-28T02:19:58;3.30;;;1.73;;
17235;SDS011;8734;59.272;17.780;2023-07-28T02:22:27;3.03;;;1.80;;
17235;SDS011;8734;59.272;17.780;2023-07-28T02:24:55;6.03;;;1.77;;
17235;SDS011;8734;59.272;17.780;2023-07-28T02:27:26;1.90;;;1.60;;
17235;SDS011;8734;59.272;17.780;2023-07-28T02:29:55;6.27;;;2.30;;
17235;SDS011;8734;59.272;17.780;2023-07-28T02:32:23;2.70;;;2.03;;
17235;SDS011;8734;59.272;17.780;2023-07-28T02:34:53;2.20;;;1.80;;
17235;SDS011;8734;59.272;17.780;2023-07-28T02:37:21;7.20;;;2.10;;
17235;SDS011;8734;59.272;17.780;2023-07-28T02:39:49;4.70;;;2.30;;
17235;SDS011;8734;59.272;17.780;2023-07-28T02:42:18;4.03;;;2.00;;
17235;SDS011;8734;59.272;17.780;2023-07-28T02:44:46;5.43;;;2.03;;
17235;SDS011;8734;59.272;17.780;2023-07-28T02:47:15;8.83;;;2.43;;
17235;SDS011;8734;59.272;17.780;2023-07-28T02:49:43;9.03;;;2.43;;
17235;SDS011;8734;59.272;17.780;2023-07-28T02:52:13;5.47;;;2.40;;
17235;SDS011;8734;59.272;17.780;2023-07-28T02:54:41;7.37;;;2.20;;
17235;SDS011;8734;59.272;17.780;2023-07-28T02:57:09;3.77;;;2.10;;
17235;SDS011;8734;59.272;17.780;2023-07-28T02:59:38;6.83;;;2.10;;
17235;SDS011;8734;59.272;17.780;2023-07-28T03:02:06;4.60;;;2.10;;
17235;SDS011;8734;59.272;17.780;2023-07-28T03:04:34;7.03;;;2.13;;
17235;SDS011;8734;59.272;17.780;2023-07-28T03:07:03;3.00;;;2.07;;
17235;SDS011;8734;59.272;17.780;2023-07-28T03:09:33;7.57;;;2.17;;
17235;SDS011;8734;59.272;17.780;2023-07-28T03:12:01;5.93;;;2.20;;
17235;SDS011;8734;59.272;17.780;2023-07-28T03:14:31;6.03;;;2.30;;
17235;SDS011;8734;59.272;17.780;2023-07-28T03:17:00;3.67;;;1.80;;
17235;SDS011;8734;59.272;17.780;2023-07-28T03:19:28;4.30;;;1.80;;
17235;SDS011;8734;59.272;17.780;2023-07-28T03:21:56;4.23;;;2.07;;
17235;SDS011;8734;59.272;17.780;2023-07-28T03:24:25;8.33;;;2.60;;
17235;SDS011;8734;59.272;17.780;2023-07-28T03:26:54;3.70;;;2.43;;
17235;SDS011;8734;59.272;17.780;2023-07-28T03:29:23;4.07;;;2.17;;
17235;SDS011;8734;59.272;17.780;2023-07-28T03:31:51;7.23;;;2.17;;
17235;SDS011;8734;59.272;17.780;2023-07-28T03:34:19;5.03;;;2.17;;
17235;SDS011;8734;59.272;17.780;2023-07-28T03:36:48;4.93;;;2.83;;
17235;SDS011;8734;59.272;17.780;2023-07-28T03:39:16;3.90;;;2.30;;
17235;SDS011;8734;59.272;17.780;2023-07-28T03:41:44;6.80;;;2.23;;
17235;SDS011;8734;59.272;17.780;2023-07-28T03:44:14;13.73;;;3.87;;
17235;SDS011;8734;59.272;17.780;2023-07-28T03:46:43;4.93;;;2.17;;
17235;SDS011;8734;59.272;17.780;2023-07-28T03:49:11;9.30;;;2.60;;
17235;SDS011;8734;59.272;17.780;2023-07-28T03:51:39;5.23;;;2.20;;
17235;SDS011;8734;59.272;17.780;2023-07-28T03:54:07;3.13;;;1.80;;
17235;SDS011;8734;59.272;17.780;2023-07-28T03:56:36;5.30;;;2.17;;
17235;SDS011;8734;59.272;17.780;2023-07-28T03:59:04;2.90;;;1.80;;
17235;SDS011;8734;59.272;17.780;2023-07-28T04:01:34;5.43;;;2.30;;
17235;SDS011;8734;59.272;17.780;2023-07-28T04:04:03;3.10;;;2.20;;
17235;SDS011;8734;59.272;17.780;2023-07-28T04:06:41;2.93;;;1.80;;
17235;SDS011;8734;59.272;17.780;2023-07-28T04:09:11;5.07;;;2.17;;
17235;SDS011;8734;59.272;17.780;2023-07-28T04:11:40;6.17;;;2.40;;
17235;SDS011;8734;59.272;17.780;2023-07-28T04:14:08;4.43;;;2.07;;
17235;SDS011;8734;59.272;17.780;2023-07-28T04:16:38;6.47;;;2.27;;
17235;SDS011;8734;59.272;17.780;2023-07-28T04:19:07;3.50;;;1.93;;
17235;SDS011;8734;59.272;17.780;2023-07-28T04:21:35;4.30;;;2.23;;
17235;SDS011;8734;59.272;17.780;2023-07-28T04:24:07;4.23;;;1.80;;
17235;SDS011;8734;59.272;17.780;2023-07-28T04:26:36;3.07;;;2.00;;
17235;SDS011;8734;59.272;17.780;2023-07-28T04:29:04;4.87;;;2.40;;
17235;SDS011;8734;59.272;17.780;2023-07-28T04:31:32;4.53;;;2.30;;
17235;SDS011;8734;59.272;17.780;2023-07-28T04:34:02;4.97;;;2.47;;
17235;SDS011;8734;59.272;17.780;2023-07-28T04:36:31;3.33;;;2.40;;
17235;SDS011;8734;59.272;17.780;2023-07-28T04:38:59;3.03;;;2.23;;
17235;SDS011;8734;59.272;17.780;2023-07-28T04:41:28;2.97;;;2.07;;
17235;SDS011;8734;59.272;17.780;2023-07-28T04:43:56;2.57;;;2.13;;
17235;SDS011;8734;59.272;17.780;2023-07-28T04:46:24;2.63;;;1.97;;
17235;SDS011;8734;59.272;17.780;2023-07-28T04:48:53;4.00;;;2.20;;
17235;SDS011;8734;59.272;17.780;2023-07-28T04:51:23;5.70;;;2.37;;
17235;SDS011;8734;59.272;17.780;2023-07-28T04:53:51;5.63;;;2.37;;
17235;SDS011;8734;59.272;17.780;2023-07-28T04:56:19;2.83;;;1.83;;
17235;SDS011;8734;59.272;17.780;2023-07-28T04:58:48;6.63;;;2.50;;
17235;SDS011;8734;59.272;17.780;2023-07-28T05:01:16;2.13;;;1.80;;
17235;SDS011;8734;59.272;17.780;2023-07-28T05:03:44;4.23;;;1.70;;
17235;SDS011;8734;59.272;17.780;2023-07-28T05:06:13;2.43;;;1.80;;
17235;SDS011;8734;59.272;17.780;2023-07-28T05:08:43;4.47;;;2.10;;
17235;SDS011;8734;59.272;17.780;2023-07-28T05:11:11;5.77;;;1.93;;
17235;SDS011;8734;59.272;17.780;2023-07-28T05:13:39;4.30;;;2.00;;
17235;SDS011;8734;59.272;17.780;2023-07-28T05:16:07;4.30;;;1.80;;
17235;SDS011;8734;59.272;17.780;2023-07-28T05:18:36;2.67;;;1.93;;
17235;SDS011;8734;59.272;17.780;2023-07-28T05:21:04;3.03;;;1.67;;
17235;SDS011;8734;59.272;17.780;2023-07-28T05:23:33;3.50;;;1.70;;
17235;SDS011;8734;59.272;17.780;2023-07-28T05:26:02;1.60;;;1.50;;
17235;SDS011;8734;59.272;17.780;2023-07-28T05:31:05;1.57;;;1.47;;
17235;SDS011;8734;59.272;17.780;2023-07-28T05:33:33;5.13;;;1.80;;
17235;SDS011;8734;59.272;17.780;2023-07-28T05:36:02;3.03;;;2.00;;
17235;SDS011;8734;59.272;17.780;2023-07-28T05:38:32;2.30;;;1.50;;
17235;SDS011;8734;59.272;17.780;2023-07-28T05:41:01;1.67;;;1.50;;
17235;SDS011;8734;59.272;17.780;2023-07-28T05:43:31;1.70;;;1.43;;
17235;SDS011;8734;59.272;17.780;2023-07-28T05:46:00;2.60;;;1.60;;
17235;SDS011;8734;59.272;17.780;2023-07-28T05:48:29;3.43;;;1.53;;
17235;SDS011;8734;59.272;17.780;2023-07-28T05:50:57;3.67;;;1.60;;
17235;SDS011;8734;59.272;17.780;2023-07-28T05:53:26;2.80;;;1.30;;
17235;SDS011;8734;59.272;17.780;2023-07-28T05:55:54;1.63;;;1.40;;
17235;SDS011;8734;59.272;17.780;2023-07-28T05:58:24;1.97;;;1.20;;
17235;SDS011;8734;59.272;17.780;2023-07-28T06:00:52;1.80;;;1.27;;
17235;SDS011;8734;59.272;17.780;2023-07-28T06:03:21;3.63;;;1.17;;
17235;SDS011;8734;59.272;17.780;2023-07-28T06:05:50;1.53;;;1.20;;
17235;SDS011;8734;59.272;17.780;2023-07-28T06:08:19;1.07;;;1.00;;
17235;SDS011;8734;59.272;17.780;2023-07-28T06:10:47;1.20;;;1.00;;
17235;SDS011;8734;59.272;17.780;2023-07-28T06:13:16;1.33;;;0.83;;
17235;SDS011;8734;59.272;17.780;2023-07-28T06:15:46;3.93;;;1.20;;
17235;SDS011;8734;59.272;17.780;2023-07-28T06:18:15;2.93;;;1.17;;
17235;SDS011;8734;59.272;17.780;2023-07-28T06:20:44;1.67;;;1.13;;
17235;SDS011;8734;59.272;17.780;2023-07-28T06:23:12;2.90;;;1.30;;
17235;SDS011;8734;59.272;17.780;2023-07-28T06:25:40;1.87;;;1.17;;
17235;SDS011;8734;59.272;17.780;2023-07-28T06:28:10;1.07;;;0.97;;
17235;SDS011;8734;59.272;17.780;2023-07-28T06:30:39;0.90;;;0.90;;
17235;SDS011;8734;59.272;17.780;2023-07-28T06:33:09;1.40;;;1.00;;
17235;SDS011;8734;59.272;17.780;2023-07-28T06:35:38;2.33;;;1.00;;
17235;SDS011;8734;59.272;17.780;2023-07-28T06:38:06;3.37;;;1.00;;
17235;SDS011;8734;59.272;17.780;2023-07-28T06:40:34;1.27;;;0.70;;
17235;SDS011;8734;59.272;17.780;2023-07-28T06:43:03;1.10;;;0.80;;
17235;SDS011;8734;59.272;17.780;2023-07-28T06:45:33;1.37;;;0.90;;
17235;SDS011;8734;59.272;17.780;2023-07-28T06:48:02;5.23;;;1.00;;
17235;SDS011;8734;59.272;17.780;2023-07-28T06:50:32;1.07;;;0.80;;
17235;SDS011;8734;59.272;17.780;2023-07-28T06:53:00;1.53;;;0.77;;
17235;SDS011;8734;59.272;17.780;2023-07-28T06:55:29;2.87;;;0.63;;
17235;SDS011;8734;59.272;17.780;2023-07-28T06:57:58;1.00;;;0.70;;
17235;SDS011;8734;59.272;17.780;2023-07-28T07:00:26;1.13;;;0.87;;
17235;SDS011;8734;59.272;17.780;2023-07-28T07:02:54;2.47;;;0.70;;
17235;SDS011;8734;59.272;17.780;2023-07-28T07:05:23;1.17;;;0.60;;
17235;SDS011;8734;59.272;17.780;2023-07-28T07:07:52;4.83;;;0.70;;
17235;SDS011;8734;59.272;17.780;2023-07-28T07:10:21;0.60;;;0.60;;
17235;SDS011;8734;59.272;17.780;2023-07-28T07:12:50;0.97;;;0.60;;
17235;SDS011;8734;59.272;17.780;2023-07-28T07:15:18;1.43;;;0.57;;
17235;SDS011;8734;59.272;17.780;2023-07-28T07:17:46;0.70;;;0.70;;
17235;SDS011;8734;59.272;17.780;2023-07-28T07:20:15;0.60;;;0.50;;
17235;SDS011;8734;59.272;17.780;2023-07-28T07:22:43;2.57;;;0.60;;
17235;SDS011;8734;59.272;17.780;2023-07-28T07:25:13;2.00;;;0.80;;
17235;SDS011;8734;59.272;17.780;2023-07-28T07:27:41;1.03;;;0.50;;
17235;SDS011;8734;59.272;17.780;2023-07-28T07:30:10;2.13;;;0.70;;
17235;SDS011;8734;59.272;17.780;2023-07-28T07:32:39;1.40;;;0.80;;
17235;SDS011;8734;59.272;17.780;2023-07-28T07:35:08;1.17;;;0.60;;
17235;SDS011;8734;59.272;17.780;2023-07-28T07:37:37;1.00;;;0.47;;
17235;SDS011;8734;59.272;17.780;2023-07-28T07:40:06;1.60;;;0.53;;
17235;SDS011;8734;59.272;17.780;2023-07-28T07:42:42;1.07;;;0.70;;
17235;SDS011;8734;59.272;17.780;2023-07-28T07:45:13;1.20;;;0.70;;
17235;SDS011;8734;59.272;17.780;2023-07-28T07:47:42;1.97;;;0.70;;
17235;SDS011;8734;59.272;17.780;2023-07-28T07:50:11;2.23;;;0.63;;
17235;SDS011;8734;59.272;17.780;2023-07-28T07:52:40;1.80;;;0.60;;
17235;SDS011;8734;59.272;17.780;2023-07-28T07:55:08;2.67;;;0.60;;
17235;SDS011;8734;59.272;17.780;2023-07-28T07:57:38;0.63;;;0.63;;
17235;SDS011;8734;59.272;17.780;2023-07-28T08:00:09;1.17;;;0.63;;
17235;SDS011;8734;59.272;17.780;2023-07-28T08:02:38;0.93;;;0.50;;
17235;SDS011;8734;59.272;17.780;2023-07-28T08:05:10;1.50;;;0.70;;
17235;SDS011;8734;59.272;17.780;2023-07-28T08:07:38;1.03;;;0.80;;
17235;SDS011;8734;59.272;17.780;2023-07-28T08:10:07;3.30;;;0.80;;
17235;SDS011;8734;59.272;17.780;2023-07-28T08:12:35;2.80;;;0.70;;
17235;SDS011;8734;59.272;17.780;2023-07-28T08:15:04;1.23;;;1.00;;
17235;SDS011;8734;59.272;17.780;2023-07-28T08:17:34;0.80;;;0.60;;
17235;SDS011;8734;59.272;17.780;2023-07-28T08:20:03;0.60;;;0.60;;
17235;SDS011;8734;59.272;17.780;2023-07-28T08:22:33;1.00;;;0.60;;
17235;SDS011;8734;59.272;17.780;2023-07-28T08:25:01;0.50;;;0.50;;
17235;SDS011;8734;59.272;17.780;2023-07-28T08:27:30;1.70;;;0.77;;
17235;SDS011;8734;59.272;17.780;2023-07-28T08:29:59;0.70;;;0.60;;
17235;SDS011;8734;59.272;17.780;2023-07-28T08:32:27;0.80;;;0.80;;
17235;SDS011;8734;59.272;17.780;2023-07-28T08:34:57;2.17;;;0.67;;
17235;SDS011;8734;59.272;17.780;2023-07-28T08:37:25;0.63;;;0.60;;
17235;SDS011;8734;59.272;17.780;2023-07-28T08:39:55;0.70;;;0.50;;
17235;SDS011;8734;59.272;17.780;2023-07-28T08:42:23;0.97;;;0.73;;
17235;SDS011;8734;59.272;17.780;2023-07-28T08:44:51;0.70;;;0.50;;
17235;SDS011;8734;59.272;17.780;2023-07-28T08:47:20;0.60;;;0.60;;
17235;SDS011;8734;59.272;17.780;2023-07-28T08:49:48;0.83;;;0.60;;
17235;SDS011;8734;59.272;17.780;2023-07-28T08:52:18;1.87;;;1.00;;
17235;SDS011;8734;59.272;17.780;2023-07-28T08:54:46;2.00;;;0.70;;
17235;SDS011;8734;59.272;17.780;2023-07-28T08:57:14;0.70;;;0.53;;
17235;SDS011;8734;59.272;17.780;2023-07-28T08:59:42;1.03;;;0.60;;
17235;SDS011;8734;59.272;17.780;2023-07-28T09:02:14;0.83;;;0.63;;
17235;SDS011;8734;59.272;17.780;2023-07-28T09:04:44;1.17;;;0.70;;
17235;SDS011;8734;59.272;17.780;2023-07-28T09:07:12;1.83;;;0.60;;
17235;SDS011;8734;59.272;17.780;2023-07-28T09:09:42;3.23;;;0.80;;
17235;SDS011;8734;59.272;17.780;2023-07-28T09:12:12;0.70;;;0.60;;
17235;SDS011;8734;59.272;17.780;2023-07-28T09:14:41;1.00;;;0.67;;
17235;SDS011;8734;59.272;17.780;2023-07-28T09:17:10;0.73;;;0.70;;
17235;SDS011;8734;59.272;17.780;2023-07-28T09:19:50;0.83;;;0.60;;
17235;SDS011;8734;59.272;17.780;2023-07-28T09:22:19;1.70;;;0.50;;
17235;SDS011;8734;59.272;17.780;2023-07-28T09:24:49;1.23;;;0.93;;
17235;SDS011;8734;59.272;17.780;2023-07-28T09:27:19;0.70;;;0.70;;
17235;SDS011;8734;59.272;17.780;2023-07-28T09:29:49;0.50;;;0.50;;
17235;SDS011;8734;59.272;17.780;2023-07-28T09:32:26;1.13;;;0.60;;
17235;SDS011;8734;59.272;17.780;2023-07-28T09:35:09;1.37;;;0.57;;
17235;SDS011;8734;59.272;17.780;2023-07-28T09:37:39;0.67;;;0.50;;
17235;SDS011;8734;59.272;17.780;2023-07-28T09:40:11;5.50;;;0.63;;
17235;SDS011;8734;59.272;17.780;2023-07-28T09:42:41;0.80;;;0.65;;
17235;SDS011;8734;59.272;17.780;2023-07-28T09:45:11;0.80;;;0.55;;
17235;SDS011;8734;59.272;17.780;2023-07-28T09:47:59;1.17;;;0.45;;
17235;SDS011;8734;59.272;17.780;2023-07-28T09:50:32;3.00;;;0.60;;
17235;SDS011;8734;59.272;17.780;2023-07-28T09:53:02;0.88;;;0.50;;
17235;SDS011;8734;59.272;17.780;2023-07-28T09:55:32;0.45;;;0.43;;
17235;SDS011;8734;59.272;17.780;2023-07-28T09:58:03;0.50;;;0.50;;
17235;SDS011;8734;59.272;17.780;2023-07-28T10:00:33;0.52;;;0.38;;
17235;SDS011;8734;59.272;17.780;2023-07-28T10:03:02;4.15;;;0.65;;
17235;SDS011;8734;59.272;17.780;2023-07-28T10:05:33;0.35;;;0.35;;
17235;SDS011;8734;59.272;17.780;2023-07-28T10:08:02;1.45;;;0.47;;
17235;SDS011;8734;59.272;17.780;2023-07-28T10:10:33;0.30;;;0.30;;
17235;SDS011;8734;59.272;17.780;2023-07-28T10:13:02;0.60;;;0.40;;
17235;SDS011;8734;59.272;17.780;2023-07-28T10:15:31;1.27;;;0.43;;
17235;SDS011;8734;59.272;17.780;2023-07-28T10:18:00;0.22;;;0.22;;
17235;SDS011;8734;59.272;17.780;2023-07-28T10:20:29;0.40;;;0.40;;
17235;SDS011;8734;59.272;17.780;2023-07-28T10:23:02;0.80;;;0.40;;
17235;SDS011;8734;59.272;17.780;2023-07-28T10:25:33;1.50;;;0.40;;
17235;SDS011;8734;59.272;17.780;2023-07-28T10:28:03;0.70;;;0.40;;
17235;SDS011;8734;59.272;17.780;2023-07-28T10:30:36;2.57;;;0.67;;
17235;SDS011;8734;59.272;17.780;2023-07-28T10:33:06;2.20;;;0.60;;
17235;SDS011;8734;59.272;17.780;2023-07-28T10:35:35;1.20;;;0.43;;
17235;SDS011;8734;59.272;17.780;2023-07-28T10:41:10;3.93;;;0.60;;
17235;SDS011;8734;59.272;17.780;2023-07-28T10:43:41;1.70;;;0.50;;
17235;SDS011;8734;59.272;17.780;2023-07-28T10:46:10;1.47;;;0.60;;
17235;SDS011;8734;59.272;17.780;2023-07-28T10:48:42;0.73;;;0.53;;
17235;SDS011;8734;59.272;17.780;2023-07-28T10:51:11;1.27;;;0.60;;
17235;SDS011;8734;59.272;17.780;2023-07-28T10:53:49;0.50;;;0.50;;
17235;SDS011;8734;59.272;17.780;2023-07-28T10:56:19;1.13;;;0.60;;
17235;SDS011;8734;59.272;17.780;2023-07-28T10:58:56;3.30;;;1.00;;
17235;SDS011;8734;59.272;17.780;2023-07-28T11:01:30;1.63;;;0.90;;
17235;SDS011;8734;59.272;17.780;2023-07-28T11:04:05;2.37;;;0.90;;
17235;SDS011;8734;59.272;17.780;2023-07-28T11:06:36;1.63;;;0.70;;
17235;SDS011;8734;59.272;17.780;2023-07-28T11:09:06;1.53;;;1.07;;
17235;SDS011;8734;59.272;17.780;2023-07-28T11:11:36;2.40;;;1.10;;
17235;SDS011;8734;59.272;17.780;2023-07-28T11:14:05;5.23;;;1.00;;
17235;SDS011;8734;59.272;17.780;2023-07-28T11:16:35;4.07;;;1.33;;
17235;SDS011;8734;59.272;17.780;2023-07-28T11:19:07;5.57;;;1.10;;
17235;SDS011;8734;59.272;17.780;2023-07-28T11:21:36;1.73;;;0.80;;
17235;SDS011;8734;59.272;17.780;2023-07-28T11:24:05;6.87;;;1.17;;
17235;SDS011;8734;59.272;17.780;2023-07-28T11:26:37;1.63;;;1.00;;
17235;SDS011;8734;59.272;17.780;2023-07-28T11:29:06;1.73;;;0.80;;
17235;SDS011;8734;59.272;17.780;2023-07-28T11:31:36;0.80;;;0.70;;
17235;SDS011;8734;59.272;17.780;2023-07-28T11:34:12;2.40;;;1.10;;
17235;SDS011;8734;59.272;17.780;2023-07-28T11:36:41;0.73;;;0.70;;
17235;SDS011;8734;59.272;17.780;2023-07-28T11:39:10;2.50;;;1.10;;
17235;SDS011;8734;59.272;17.780;2023-07-28T11:41:40;7.40;;;1.20;;
17235;SDS011;8734;59.272;17.780;2023-07-28T11:44:10;1.93;;;1.13;;
17235;SDS011;8734;59.272;17.780;2023-07-28T11:46:40;4.27;;;1.20;;
17235;SDS011;8734;59.272;17.780;2023-07-28T11:49:10;3.50;;;1.20;;
17235;SDS011;8734;59.272;17.780;2023-07-28T11:51:40;3.33;;;0.90;;
17235;SDS011;8734;59.272;17.780;2023-07-28T11:54:10;3.10;;;0.90;;
17235;SDS011;8734;59.272;17.780;2023-07-28T11:56:41;5.33;;;1.17;;
17235;SDS011;8734;59.272;17.780;2023-07-28T11:59:11;4.30;;;0.83;;
17235;SDS011;8734;59.272;17.780;2023-07-28T12:01:51;6.30;;;0.97;;
17235;SDS011;8734;59.272;17.780;2023-07-28T12:04:24;1.90;;;1.03;;
17235;SDS011;8734;59.272;17.780;2023-07-28T12:07:01;2.43;;;1.10;;
17235;SDS011;8734;59.272;17.780;2023-07-28T12:09:47;3.83;;;1.13;;
17235;SDS011;8734;59.272;17.780;2023-07-28T12:12:30;3.00;;;0.93;;
17235;SDS011;8734;59.272;17.780;2023-07-28T12:15:19;2.40;;;1.17;;
17235;SDS011;8734;59.272;17.780;2023-07-28T12:18:01;4.13;;;1.47;;
17235;SDS011;8734;59.272;17.780;2023-07-28T12:20:34;6.43;;;1.20;;
17235;SDS011;8734;59.272;17.780;2023-07-28T12:23:05;4.20;;;1.20;;
17235;SDS011;8734;59.272;17.780;2023-07-28T12:25:38;5.13;;;1.53;;
17235;SDS011;8734;59.272;17.780;2023-07-28T12:28:08;4.33;;;1.23;;
17235;SDS011;8734;59.272;17.780;2023-07-28T12:30:39;7.97;;;1.37;;
17235;SDS011;8734;59.272;17.780;2023-07-28T12:33:08;3.00;;;1.10;;
17235;SDS011;8734;59.272;17.780;2023-07-28T12:35:47;7.27;;;1.10;;
17235;SDS011;8734;59.272;17.780;2023-07-28T12:38:17;9.20;;;1.30;;
17235;SDS011;8734;59.272;17.780;2023-07-28T12:40:48;8.17;;;1.20;;
17235;SDS011;8734;59.272;17.780;2023-07-28T12:43:21;7.03;;;1.30;;
17235;SDS011;8734;59.272;17.780;2023-07-28T12:45:53;10.70;;;1.20;;
17235;SDS011;8734;59.272;17.780;2023-07-28T12:48:25;1.73;;;1.00;;
17235;SDS011;8734;59.272;17.780;2023-07-28T12:50:53;8.20;;;1.00;;
17235;SDS011;8734;59.272;17.780;2023-07-28T12:53:25;2.70;;;0.90;;
17235;SDS011;8734;59.272;17.780;2023-07-28T12:55:53;1.27;;;0.70;;
17235;SDS011;8734;59.272;17.780;2023-07-28T12:58:26;1.80;;;0.70;;
17235;SDS011;8734;59.272;17.780;2023-07-28T13:00:58;0.97;;;0.60;;
17235;SDS011;8734;59.272;17.780;2023-07-28T13:03:28;1.30;;;0.53;;
17235;SDS011;8734;59.272;17.780;2023-07-28T13:05:57;2.83;;;0.60;;
17235;SDS011;8734;59.272;17.780;2023-07-28T13:08:26;1.80;;;0.60;;
17235;SDS011;8734;59.272;17.780;2023-07-28T13:10:57;3.20;;;0.60;;
17235;SDS011;8734;59.272;17.780;2023-07-28T13:13:29;1.00;;;0.60;;
17235;SDS011;8734;59.272;17.780;2023-07-28T13:15:59;1.17;;;0.97;;
17235;SDS011;8734;59.272;17.780;2023-07-28T13:18:27;5.27;;;1.17;;
17235;SDS011;8734;59.272;17.780;2023-07-28T13:20:57;3.03;;;0.80;;
17235;SDS011;8734;59.272;17.780;2023-07-28T13:23:25;2.00;;;0.70;;
17235;SDS011;8734;59.272;17.780;2023-07-28T13:25:54;1.90;;;0.70;;
17235;SDS011;8734;59.272;17.780;2023-07-28T13:28:22;1.43;;;0.60;;
17235;SDS011;8734;59.272;17.780;2023-07-28T13:30:53;0.70;;;0.60;;
17235;SDS011;8734;59.272;17.780;2023-07-28T13:33:21;1.13;;;0.60;;
17235;SDS011;8734;59.272;17.780;2023-07-28T13:35:50;0.57;;;0.57;;
17235;SDS011;8734;59.272;17.780;2023-07-28T13:38:18;1.57;;;0.67;;
17235;SDS011;8734;59.272;17.780;2023-07-28T13:40:47;1.20;;;0.80;;
17235;SDS011;8734;59.272;17.780;2023-07-28T13:43:16;1.40;;;0.60;;
17235;SDS011;8734;59.272;17.780;2023-07-28T13:45:44;0.77;;;0.50;;
17235;SDS011;8734;59.272;17.780;2023-07-28T13:48:14;1.27;;;0.50;;
17235;SDS011;8734;59.272;17.780;2023-07-28T13:50:45;2.13;;;0.60;;
17235;SDS011;8734;59.272;17.780;2023-07-28T13:53:16;1.03;;;0.60;;
17235;SDS011;8734;59.272;17.780;2023-07-28T13:55:47;1.43;;;0.50;;
17235;SDS011;8734;59.272;17.780;2023-07-28T13:58:23;0.80;;;0.70;;
17235;SDS011;8734;59.272;17.780;2023-07-28T14:00:52;1.60;;;0.70;;
17235;SDS011;8734;59.272;17.780;2023-07-28T14:03:21;0.50;;;0.50;;
17235;SDS011;8734;59.272;17.780;2023-07-28T14:05:50;2.23;;;0.70;;
17235;SDS011;8734;59.272;17.780;2023-07-28T14:08:19;2.27;;;0.63;;
17235;SDS011;8734;59.272;17.780;2023-07-28T14:10:47;1.17;;;0.60;;
17235;SDS011;8734;59.272;17.780;2023-07-28T14:13:16;0.87;;;0.60;;
17235;SDS011;8734;59.272;17.780;2023-07-28T14:15:44;4.47;;;0.77;;
17235;SDS011;8734;59.272;17.780;2023-07-28T14:18:12;7.30;;;0.87;;
17235;SDS011;8734;59.272;17.780;2023-07-28T14:20:42;2.10;;;0.87;;
17235;SDS011;8734;59.272;17.780;2023-07-28T14:25:57;3.17;;;0.80;;
17235;SDS011;8734;59.272;17.780;2023-07-28T14:28:25;1.30;;;0.80;;
17235;SDS011;8734;59.272;17.780;2023-07-28T14:30:53;0.97;;;0.70;;
17235;SDS011;8734;59.272;17.780;2023-07-28T14:33:22;3.37;;;0.97;;
17235;SDS011;8734;59.272;17.780;2023-07-28T14:35:51;3.60;;;0.70;;
17235;SDS011;8734;59.272;17.780;2023-07-28T14:38:20;1.10;;;1.00;;
17235;SDS011;8734;59.272;17.780;2023-07-28T14:40:48;1.33;;;0.90;;
17235;SDS011;8734;59.272;17.780;2023-07-28T14:43:18;1.90;;;0.80;;
17235;SDS011;8734;59.272;17.780;2023-07-28T14:45:48;3.83;;;1.00;;
17235;SDS011;8734;59.272;17.780;2023-07-28T14:48:17;4.60;;;1.10;;
17235;SDS011;8734;59.272;17.780;2023-07-28T14:50:45;1.60;;;0.57;;
17235;SDS011;8734;59.272;17.780;2023-07-28T14:53:31;1.60;;;0.80;;
17235;SDS011;8734;59.272;17.780;2023-07-28T14:56:01;1.17;;;0.50;;
17235;SDS011;8734;59.272;17.780;2023-07-28T14:58:31;0.70;;;0.50;;
17235;SDS011;8734;59.272;17.780;2023-07-28T15:00:59;0.43;;;0.43;;
17235;SDS011;8734;59.272;17.780;2023-07-28T15:03:31;0.30;;;0.30;;
17235;SDS011;8734;59.272;17.780;2023-07-28T15:06:00;0.60;;;0.53;;
17235;SDS011;8734;59.272;17.780;2023-07-28T15:08:30;0.60;;;0.50;;
17235;SDS011;8734;59.272;17.780;2023-07-28T15:10:58;0.77;;;0.57;;